Time;durP1;ratioP1;P1;durP2;ratioP2;P2;SDS_P1;SDS_P2;PMS_P1;PMS_P2;Temp;Humidity;BMP_temperature;BMP_pressure;BME280_temperature;BME280_humidity;BME280_pressure;Samples;Min_cycle;Max_cycle;Signal;HPM_P1;HPM_P2
2023/12/22 00:01:45;;;;;;;6.20;1.40;;;;;;;1.28;100.00;95126.39;109025;1257;57630;-63
2023/12/22 00:04:33;;;;;;;7.40;1.40;;;;;;;1.23;100.00;95121.05;109032;1257;59038;-63
2023/12/22 00:07:21;;;;;;;6.40;1.30;;;;;;;1.21;100.00;95123.48;109035;1257;71476;-65
2023/12/22 00:10:10;;;;;;;5.70;1.30;;;;;;;1.21;100.00;95127.11;109042;1257;69178;-62
2023/12/22 00:12:58;;;;;;;6.20;1.30;;;;;;;1.18;100.00;95121.06;108991;1257;71231;-63
2023/12/22 00:15:45;;;;;;;5.40;1.20;;;;;;;1.14;100.00;95134.98;109108;1257;58499;-62
2023/12/22 00:18:33;;;;;;;4.90;1.10;;;;;;;1.09;100.00;95145.85;109132;1257;59908;-63
2023/12/22 00:21:21;;;;;;;5.20;1.10;;;;;;;1.08;100.00;95141.67;109082;1257;74546;-63
2023/12/22 00:24:09;;;;;;;5.50;1.30;;;;;;;1.03;100.00;95144.66;109048;1257;67955;-62
2023/12/22 00:26:57;;;;;;;5.90;1.50;;;;;;;1.00;100.00;95141.81;109031;1257;73811;-63
2023/12/22 00:29:44;;;;;;;5.60;1.30;;;;;;;0.99;100.00;95143.34;108953;1257;57612;-62
2023/12/22 00:32:32;;;;;;;5.70;1.70;;;;;;;0.99;100.00;95134.92;109146;1257;60220;-63
2023/12/22 00:35:19;;;;;;;6.20;1.40;;;;;;;1.01;100.00;95144.40;109002;1257;72775;-62
2023/12/22 00:38:07;;;;;;;5.20;1.20;;;;;;;1.04;100.00;95137.55;109124;1257;67645;-63
2023/12/22 00:40:55;;;;;;;5.70;1.70;;;;;;;1.08;100.00;95143.40;109095;1257;73838;-61
2023/12/22 00:43:43;;;;;;;11.00;1.80;;;;;;;1.12;100.00;95135.52;109009;1257;58326;-64
2023/12/22 00:46:31;;;;;;;5.60;1.50;;;;;;;1.18;100.00;95142.05;108388;1257;1002422;-60
2023/12/22 00:49:21;;;;;;;5.80;1.60;;;;;;;1.26;100.00;95143.09;109217;1257;72960;-60
2023/12/22 00:52:09;;;;;;;6.30;1.60;;;;;;;1.32;100.00;95139.86;109121;1257;66692;-61
2023/12/22 00:54:57;;;;;;;9.20;2.00;;;;;;;1.43;100.00;95147.09;109079;1257;71443;-62
2023/12/22 00:57:45;;;;;;;7.20;1.70;;;;;;;1.53;100.00;95148.54;109042;1257;57526;-62
2023/12/22 01:00:33;;;;;;;6.80;1.50;;;;;;;1.60;100.00;95153.27;109095;1257;57707;-62
2023/12/22 01:03:21;;;;;;;4.70;1.10;;;;;;;1.67;100.00;95158.23;109010;1257;74309;-60
2023/12/22 01:06:09;;;;;;;4.80;1.20;;;;;;;1.70;100.00;95147.38;109231;1257;66402;-62
2023/12/22 01:08:56;;;;;;;5.40;1.40;;;;;;;1.72;100.00;95155.70;109092;1257;72687;-61
2023/12/22 01:11:44;;;;;;;5.80;1.50;;;;;;;1.71;100.00;95153.23;109007;1257;59092;-61
2023/12/22 01:14:33;;;;;;;6.00;1.40;;;;;;;1.67;100.00;95163.66;109183;1256;59064;-62
2023/12/22 01:17:21;;;;;;;6.00;1.80;;;;;;;1.61;100.00;95171.34;109035;1256;72872;-62
2023/12/22 01:20:10;;;;;;;3.90;1.10;;;;;;;1.52;100.00;95171.75;109047;1257;66540;-63
2023/12/22 01:22:58;;;;;;;4.90;1.30;;;;;;;1.43;100.00;95180.17;109164;1257;71565;-62
2023/12/22 01:25:45;;;;;;;5.30;1.50;;;;;;;1.35;100.00;95179.84;109109;1257;58803;-62
2023/12/22 01:28:34;;;;;;;5.10;1.30;;;;;;;1.27;100.00;95179.86;109180;1257;59048;-62
2023/12/22 01:31:22;;;;;;;3.80;1.00;;;;;;;1.21;100.00;95180.96;109035;1257;72979;-62
2023/12/22 01:34:10;;;;;;;4.40;1.30;;;;;;;1.17;100.00;95181.53;108385;1257;1014969;-62
2023/12/22 01:36:57;;;;;;;4.70;1.20;;;;;;;1.11;100.00;95174.06;109142;1260;72334;-62
2023/12/22 01:39:45;;;;;;;7.90;1.40;;;;;;;1.06;100.00;95187.61;109122;1256;58445;-63
2023/12/22 01:42:33;;;;;;;6.20;1.20;;;;;;;1.04;100.00;95181.41;109109;1260;58724;-63
2023/12/22 01:45:20;;;;;;;5.50;1.40;;;;;;;1.00;100.00;95172.77;109134;1257;72856;-62
2023/12/22 01:48:08;;;;;;;5.10;1.20;;;;;;;0.96;100.00;95173.85;109159;1257;67664;-62
2023/12/22 01:50:59;;;;;;;8.00;1.50;;;;;;;0.96;100.00;95172.80;109071;1257;72638;-61
2023/12/22 01:53:47;;;;;;;6.00;1.40;;;;;;;0.90;100.00;95172.44;109137;1257;58486;-61
2023/12/22 01:56:35;;;;;;;5.50;1.30;;;;;;;0.95;100.00;95177.00;109185;1256;60024;-62
2023/12/22 01:59:23;;;;;;;5.40;1.20;;;;;;;0.94;100.00;95171.00;109129;1257;73835;-61
2023/12/22 02:02:11;;;;;;;4.50;1.10;;;;;;;0.88;100.00;95174.30;109041;1257;68013;-63
2023/12/22 02:05:00;;;;;;;4.20;1.20;;;;;;;0.87;100.00;95186.60;109083;1257;73557;-60
2023/12/22 02:07:47;;;;;;;4.60;1.30;;;;;;;0.82;100.00;95191.23;109037;1257;57598;-61
2023/12/22 02:10:36;;;;;;;4.40;1.10;;;;;;;0.78;100.00;95189.76;109132;1257;60412;-61
2023/12/22 02:13:25;;;;;;;4.90;1.00;;;;;;;0.72;100.00;95182.26;109107;1257;73750;-61
2023/12/22 02:16:51;;;;;;;6.20;1.20;;;;;;;0.65;100.00;95177.23;109165;1257;67838;-60
2023/12/22 02:19:45;;;;;;;5.30;1.50;;;;;;;0.62;100.00;95183.91;109143;1257;73155;-61
2023/12/22 02:22:33;;;;;;;7.80;1.90;;;;;;;0.61;100.00;95183.14;109071;1257;57315;-61
2023/12/22 02:25:21;;;;;;;6.40;1.60;;;;;;;0.58;100.00;95187.29;107633;1257;1002798;-59
2023/12/22 02:28:19;;;;;;;5.70;1.50;;;;;;;0.57;100.00;95210.15;109166;1257;73005;-63
2023/12/22 02:31:37;;;;;;;6.00;1.40;;;;;;;0.48;100.00;95221.20;109209;1257;67307;-60
2023/12/22 02:34:26;;;;;;;4.60;1.20;;;;;;;0.42;100.00;95218.83;109094;1257;72724;-61
2023/12/22 02:37:16;;;;;;;6.80;1.40;;;;;;;0.33;100.00;95242.98;109077;1258;59863;-62
2023/12/22 02:40:05;;;;;;;5.60;1.50;;;;;;;0.25;100.00;95241.47;109042;1257;58737;-60
2023/12/22 02:42:53;;;;;;;5.90;1.30;;;;;;;0.19;100.00;95245.49;109150;1257;73902;-61
2023/12/22 02:45:42;;;;;;;8.40;2.10;;;;;;;0.14;100.00;95258.16;109140;1257;67704;-61
2023/12/22 02:48:29;;;;;;;7.50;1.80;;;;;;;0.15;100.00;95241.03;109061;1257;72793;-62
2023/12/22 02:51:17;;;;;;;6.90;1.70;;;;;;;0.14;100.00;95245.61;108432;1257;1002325;-61
2023/12/22 02:54:05;;;;;;;5.50;1.60;;;;;;;0.15;100.00;95236.41;108419;1257;1002306;-60
2023/12/22 02:56:53;;;;;;;5.80;1.30;;;;;;;0.16;100.00;95230.80;109143;1256;72136;-61
2023/12/22 02:59:41;;;;;;;9.00;1.70;;;;;;;0.15;100.00;95228.41;109187;1257;66085;-60
2023/12/22 03:02:29;;;;;;;5.50;1.50;;;;;;;0.16;100.00;95236.71;109187;1257;73503;-62
2023/12/22 03:05:16;;;;;;;5.10;1.30;;;;;;;0.17;100.00;95232.42;109125;1257;58773;-63
2023/12/22 03:08:05;;;;;;;5.40;1.20;;;;;;;0.16;100.00;95235.95;109209;1256;59986;-62
2023/12/22 03:10:52;;;;;;;5.40;1.60;;;;;;;0.15;100.00;95241.92;109168;1257;74253;-62
2023/12/22 03:13:40;;;;;;;4.50;1.20;;;;;;;0.13;100.00;95244.58;109103;1257;66824;-62
2023/12/22 03:16:28;;;;;;;7.50;1.70;;;;;;;0.12;100.00;95249.39;109199;1256;71087;-62
2023/12/22 03:19:15;;;;;;;6.50;1.70;;;;;;;0.12;100.00;95251.44;109184;1257;58510;-62
2023/12/22 03:22:03;;;;;;;6.00;1.50;;;;;;;0.10;100.00;95254.27;109197;1257;59303;-62
2023/12/22 03:24:51;;;;;;;3.70;0.90;;;;;;;0.08;100.00;95244.89;109198;1257;72998;-63
2023/12/22 03:27:39;;;;;;;4.10;1.10;;;;;;;0.06;100.00;95250.95;109215;1257;69217;-61
2023/12/22 03:30:27;;;;;;;4.20;1.30;;;;;;;0.02;100.00;95258.30;109177;1257;72693;-62
2023/12/22 03:33:15;;;;;;;4.40;1.20;;;;;;;0.00;100.00;95262.15;109152;1257;58886;-61
2023/12/22 03:36:03;;;;;;;4.90;1.20;;;;;;;0.03;100.00;95274.71;109163;1257;60280;-62
2023/12/22 03:38:51;;;;;;;4.50;1.30;;;;;;;0.05;100.00;95265.11;109185;1257;73928;-63
2023/12/22 03:41:39;;;;;;;5.00;1.20;;;;;;;0.04;100.00;95259.10;109181;1257;66671;-61
2023/12/22 03:44:27;;;;;;;3.60;0.90;;;;;;;0.02;100.00;95256.60;109167;1257;73027;-61
2023/12/22 03:47:16;;;;;;;4.80;1.40;;;;;;;0.01;100.00;95252.15;109192;1257;58835;-62
2023/12/22 03:50:04;;;;;;;5.10;1.40;;;;;;;-0.05;100.00;95244.23;109206;1256;59545;-61
2023/12/22 03:52:51;;;;;;;4.70;1.20;;;;;;;0.01;100.00;95253.52;109055;1257;74218;-61
2023/12/22 03:55:40;;;;;;;4.30;1.30;;;;;;;0.02;100.00;95259.20;109108;1257;65433;-62
2023/12/22 03:58:29;;;;;;;4.90;1.40;;;;;;;0.05;100.00;95255.76;109160;1257;72441;-61
2023/12/22 04:01:17;;;;;;;6.00;1.60;;;;;;;0.05;100.00;95259.73;109154;1257;59807;-61
2023/12/22 04:04:05;;;;;;;9.90;1.90;;;;;;;0.05;100.00;95257.09;109109;1261;58859;-61
2023/12/22 04:06:53;;;;;;;5.30;1.50;;;;;;;0.08;100.00;95255.52;108927;1257;223389;-61
2023/12/22 04:09:41;;;;;;;5.20;1.30;;;;;;;0.09;100.00;95253.68;109058;1257;66710;-61
2023/12/22 04:12:28;;;;;;;4.70;1.30;;;;;;;0.10;100.00;95253.70;109118;1257;71108;-60
2023/12/22 04:15:16;;;;;;;6.10;1.50;;;;;;;0.10;100.00;95250.48;109109;1257;59589;-60
2023/12/22 04:18:04;;;;;;;6.70;1.30;;;;;;;0.12;100.00;95261.09;109213;1257;59062;-61
2023/12/22 04:20:55;;;;;;;7.20;1.60;;;;;;;0.10;100.00;95254.06;109166;1256;73142;-59
2023/12/22 04:23:42;;;;;;;6.60;1.60;;;;;;;0.12;100.00;95262.55;109195;1257;67026;-62
2023/12/22 04:26:30;;;;;;;8.30;1.70;;;;;;;0.12;100.00;95253.81;109144;1257;72491;-61
2023/12/22 04:29:18;;;;;;;6.80;1.60;;;;;;;0.13;100.00;95272.58;109169;1257;58420;-61
2023/12/22 04:32:06;;;;;;;6.60;1.70;;;;;;;0.13;100.00;95267.84;109160;1257;60322;-62
2023/12/22 04:34:53;;;;;;;6.50;1.40;;;;;;;0.11;100.00;95271.02;109069;1257;73045;-60
2023/12/22 04:37:41;;;;;;;6.50;1.70;;;;;;;0.10;100.00;95269.98;109171;1257;68652;-62
2023/12/22 04:40:29;;;;;;;6.10;1.40;;;;;;;0.09;100.00;95269.04;109045;1256;71728;-61
2023/12/22 04:43:17;;;;;;;6.70;1.50;;;;;;;0.09;100.00;95264.65;109148;1256;59464;-62
2023/12/22 04:46:05;;;;;;;6.50;1.60;;;;;;;0.10;100.00;95273.28;109206;1257;58744;-62
2023/12/22 04:48:53;;;;;;;8.30;1.60;;;;;;;0.09;100.00;95270.92;109115;1257;72980;-62
2023/12/22 04:51:42;;;;;;;5.70;1.20;;;;;;;0.08;100.00;95271.99;109187;1257;67921;-63
2023/12/22 04:54:30;;;;;;;10.20;2.40;;;;;;;0.05;100.00;95269.64;109119;1257;72700;-63
2023/12/22 04:57:18;;;;;;;5.80;1.40;;;;;;;0.04;100.00;95270.66;109186;1257;57809;-63
2023/12/22 05:00:06;;;;;;;6.20;1.20;;;;;;;0.00;100.00;95270.52;109215;1257;58106;-62
2023/12/22 05:02:54;;;;;;;7.80;1.50;;;;;;;-0.03;100.00;95280.92;109149;1257;74041;-62
2023/12/22 05:05:42;;;;;;;5.10;1.30;;;;;;;-0.05;100.00;95284.30;109135;1257;67913;-62
2023/12/22 05:08:30;;;;;;;5.50;1.30;;;;;;;-0.06;100.00;95278.17;109131;1257;72319;-62
2023/12/22 05:11:18;;;;;;;5.70;1.60;;;;;;;-0.08;100.00;95293.02;109177;1257;57374;-62
2023/12/22 05:14:06;;;;;;;7.70;1.70;;;;;;;-0.10;100.00;95281.73;109165;1256;59100;-62
2023/12/22 05:16:55;;;;;;;7.30;1.30;;;;;;;-0.10;100.00;95280.75;109180;1257;73757;-63
2023/12/22 05:19:43;;;;;;;7.50;1.60;;;;;;;-0.14;100.00;95269.43;109144;1258;68683;-64
2023/12/22 05:22:31;;;;;;;8.10;1.60;;;;;;;-0.14;100.00;95268.02;109130;1257;72438;-61
2023/12/22 05:25:23;;;;;;;10.20;2.30;;;;;;;-0.15;100.00;95269.43;109046;1257;59243;-64
2023/12/22 05:28:11;;;;;;;7.60;1.70;;;;;;;-0.16;100.00;95272.04;109160;1257;61095;-62
2023/12/22 05:30:58;;;;;;;14.10;2.40;;;;;;;-0.20;100.00;95271.67;108378;1257;1002268;-62
2023/12/22 05:33:46;;;;;;;11.50;2.40;;;;;;;-0.23;100.00;95280.22;109031;1257;67495;-61
2023/12/22 05:36:34;;;;;;;10.20;1.90;;;;;;;-0.25;100.00;95279.05;109205;1257;73406;-65
2023/12/22 05:39:22;;;;;;;14.50;2.50;;;;;;;-0.28;100.00;95283.08;109132;1257;58529;-63
2023/12/22 05:42:10;;;;;;;13.20;2.30;;;;;;;-0.34;100.00;95262.98;109189;1257;60092;-63
2023/12/22 05:44:58;;;;;;;10.00;1.70;;;;;;;-0.34;100.00;95279.11;109155;1257;72810;-62
2023/12/22 05:47:46;;;;;;;13.30;2.20;;;;;;;-0.36;100.00;95274.80;109071;1257;69407;-62
2023/12/22 05:50:35;;;;;;;10.10;1.50;;;;;;;-0.42;100.00;95269.15;108934;1257;70308;-62
2023/12/22 05:53:23;;;;;;;8.40;1.80;;;;;;;-0.33;100.00;95271.20;109075;1257;59295;-63
2023/12/22 05:56:19;;;;;;;7.90;1.80;;;;;;;-0.31;100.00;95284.94;109012;1257;61180;-63
2023/12/22 05:59:07;;;;;;;9.10;2.00;;;;;;;-0.31;100.00;95277.39;109102;1258;71652;-63
2023/12/22 06:01:55;;;;;;;9.30;2.00;;;;;;;-0.29;100.00;95282.30;109057;1258;66856;-66
2023/12/22 06:04:43;;;;;;;7.60;1.50;;;;;;;-0.27;100.00;95280.14;109093;1257;73438;-63
2023/12/22 06:07:31;;;;;;;10.40;2.00;;;;;;;-0.26;100.00;95287.55;109088;1257;57477;-63
2023/12/22 06:10:20;;;;;;;11.50;2.00;;;;;;;-0.25;100.00;95295.63;109180;1257;60992;-63
2023/12/22 06:13:08;;;;;;;10.90;2.10;;;;;;;-0.25;100.00;95288.48;109107;1257;72038;-64
2023/12/22 06:15:55;;;;;;;11.10;2.40;;;;;;;-0.26;100.00;95289.73;109172;1257;67873;-62
2023/12/22 06:18:44;;;;;;;11.40;2.40;;;;;;;-0.27;100.00;95290.58;109041;1257;73365;-64
2023/12/22 06:21:32;;;;;;;9.20;1.80;;;;;;;-0.26;100.00;95287.23;109183;1257;57321;-62
2023/12/22 06:24:20;;;;;;;17.00;2.20;;;;;;;-0.28;100.00;95298.69;109218;1257;60032;-63
2023/12/22 06:27:08;;;;;;;11.70;2.00;;;;;;;-0.27;100.00;95295.84;109180;1257;73240;-64
2023/12/22 06:29:57;;;;;;;18.10;2.40;;;;;;;-0.27;100.00;95297.41;109038;1257;68703;-62
2023/12/22 06:32:45;;;;;;;11.10;1.90;;;;;;;-0.27;100.00;95297.05;109012;1257;71445;-62
2023/12/22 06:35:33;;;;;;;10.20;2.50;;;;;;;-0.28;100.00;95301.36;109147;1257;57389;-63
2023/12/22 06:38:21;;;;;;;15.50;2.80;;;;;;;-0.27;100.00;95307.89;109153;1257;60363;-62
2023/12/22 06:41:25;;;;;;;12.10;2.20;;;;;;;-0.26;100.00;95316.09;108460;1257;1002098;-61
2023/12/22 06:44:15;;;;;;;16.50;2.80;;;;;;;-0.25;100.00;95317.36;109134;1257;69012;-63
2023/12/22 06:47:03;;;;;;;14.40;2.10;;;;;;;-0.25;100.00;95314.71;109067;1257;72630;-61
2023/12/22 06:49:51;;;;;;;9.80;1.90;;;;;;;-0.25;100.00;95319.41;109105;1257;57560;-62
2023/12/22 06:52:39;;;;;;;7.70;1.70;;;;;;;-0.24;100.00;95319.48;109131;1257;61024;-63
2023/12/22 06:55:27;;;;;;;8.90;1.90;;;;;;;-0.23;100.00;95321.90;109032;1257;73892;-63
2023/12/22 06:58:15;;;;;;;12.70;2.60;;;;;;;-0.22;100.00;95324.36;109130;1257;66710;-65
2023/12/22 07:01:03;;;;;;;11.10;1.80;;;;;;;-0.23;100.00;95320.05;109061;1257;71188;-66
2023/12/22 07:03:51;;;;;;;10.40;1.80;;;;;;;-0.21;100.00;95325.00;109145;1257;57306;-61
2023/12/22 07:06:40;;;;;;;8.90;1.70;;;;;;;-0.24;100.00;95329.95;109200;1257;60368;-66
2023/12/22 07:09:30;;;;;;;8.40;1.50;;;;;;;-0.27;100.00;95326.64;109101;1257;73776;-65
2023/12/22 07:12:18;;;;;;;7.40;1.70;;;;;;;-0.29;100.00;95330.85;109099;1257;67951;-63
2023/12/22 07:15:08;;;;;;;8.70;1.60;;;;;;;-0.31;100.00;95333.37;109151;1257;73392;-64
2023/12/22 07:17:57;;;;;;;9.50;1.70;;;;;;;-0.32;100.00;95330.15;109151;1258;58691;-65
2023/12/22 07:20:45;;;;;;;8.20;1.40;;;;;;;-0.31;100.00;95324.62;109090;1257;58681;-62
2023/12/22 07:23:33;;;;;;;10.10;1.90;;;;;;;-0.30;100.00;95327.50;108942;1257;74234;-64
2023/12/22 07:26:21;;;;;;;11.50;2.00;;;;;;;-0.30;100.00;95336.05;109097;1257;67119;-61
2023/12/22 07:29:09;;;;;;;10.30;2.10;;;;;;;-0.30;100.00;95335.93;109008;1257;71328;-61
2023/12/22 07:31:57;;;;;;;8.80;2.10;;;;;;;-0.31;100.00;95333.17;109126;1257;58652;-63
2023/12/22 07:34:47;;;;;;;9.00;2.00;;;;;;;-0.30;100.00;95334.16;108958;1257;60155;-64
2023/12/22 07:37:36;;;;;;;9.90;2.20;;;;;;;-0.30;100.00;95334.64;108998;1257;71721;-66
2023/12/22 07:40:26;;;;;;;8.70;2.10;;;;;;;-0.30;100.00;95340.39;108376;1257;1002080;-63
2023/12/22 07:43:14;;;;;;;9.70;2.20;;;;;;;-0.29;100.00;95336.34;108996;1257;72707;-63
2023/12/22 07:46:02;;;;;;;7.90;1.70;;;;;;;-0.28;100.00;95338.06;108199;1257;1002450;-61
2023/12/22 07:48:50;;;;;;;8.00;1.90;;;;;;;-0.28;100.00;95339.92;109031;1260;59121;-61
2023/12/22 07:51:39;;;;;;;11.00;2.30;;;;;;;-0.26;100.00;95335.10;109009;1257;73448;-61
2023/12/22 07:54:28;;;;;;;9.40;1.70;;;;;;;-0.25;100.00;95328.23;109053;1257;67596;-64
2023/12/22 07:57:15;;;;;;;8.00;1.90;;;;;;;-0.22;100.00;95328.23;109158;1257;72501;-62
2023/12/22 08:00:05;;;;;;;7.80;2.00;;;;;;;-0.19;100.00;95331.83;109064;1257;58796;-64
2023/12/22 08:02:58;;;;;;;9.20;2.10;;;;;;;-0.17;100.00;95328.11;109083;1257;60152;-63
2023/12/22 08:05:46;;;;;;;8.40;1.60;;;;;;;-0.15;100.00;95327.31;109070;1257;72956;-63
2023/12/22 08:08:34;;;;;;;8.60;2.80;;;;;;;-0.15;100.00;95316.84;109156;1257;65770;-61
2023/12/22 08:11:25;;;;;;;8.50;2.00;;;;;;;-0.15;100.00;95313.49;109194;1257;72173;-63
2023/12/22 08:14:12;;;;;;;9.40;1.70;;;;;;;-0.16;100.00;95314.68;108997;1257;59109;-63
2023/12/22 08:17:00;;;;;;;8.30;1.80;;;;;;;-0.18;100.00;95312.42;109013;1257;59210;-63
2023/12/22 08:19:48;;;;;;;8.40;1.60;;;;;;;-0.20;100.00;95307.89;109128;1257;73094;-64
2023/12/22 08:22:37;;;;;;;7.20;1.70;;;;;;;-0.20;100.00;95315.08;109127;1257;67588;-63
2023/12/22 08:25:27;;;;;;;7.80;2.10;;;;;;;-0.22;100.00;95317.55;108954;1257;73346;-63
2023/12/22 08:28:15;;;;;;;9.60;2.50;;;;;;;-0.24;100.00;95316.92;109127;1256;57456;-63
2023/12/22 08:31:03;;;;;;;8.90;1.90;;;;;;;-0.21;100.00;95317.45;109038;1257;59031;-65
2023/12/22 08:33:50;;;;;;;7.20;1.90;;;;;;;-0.20;100.00;95316.77;109113;1257;72823;-64
2023/12/22 08:36:38;;;;;;;7.60;1.90;;;;;;;-0.20;100.00;95317.19;109095;1257;68863;-63
2023/12/22 08:39:26;;;;;;;8.50;2.00;;;;;;;-0.19;100.00;95321.34;108976;1257;71573;-65
2023/12/22 08:42:14;;;;;;;5.70;1.50;;;;;;;-0.16;100.00;95326.01;108954;1257;59003;-63
2023/12/22 08:45:02;;;;;;;6.30;1.60;;;;;;;-0.13;100.00;95327.05;109102;1257;60525;-63
2023/12/22 08:47:50;;;;;;;8.20;2.00;;;;;;;-0.12;100.00;95329.20;109111;1257;73924;-63
2023/12/22 08:50:39;;;;;;;6.60;1.60;;;;;;;-0.11;100.00;95332.17;109131;1257;66693;-61
2023/12/22 08:53:29;;;;;;;6.10;1.70;;;;;;;-0.09;100.00;95329.36;109054;1257;73464;-61
2023/12/22 08:56:17;;;;;;;5.70;1.30;;;;;;;-0.06;100.00;95331.50;108922;1260;59810;-63
2023/12/22 08:59:05;;;;;;;6.60;1.70;;;;;;;-0.04;100.00;95329.66;108979;1257;60109;-63
2023/12/22 09:01:53;;;;;;;8.00;1.90;;;;;;;0.02;100.00;95324.91;109038;1259;70857;-64
2023/12/22 09:04:41;;;;;;;6.10;1.60;;;;;;;0.05;100.00;95321.89;109066;1257;65752;-62
2023/12/22 09:07:29;;;;;;;5.00;1.50;;;;;;;0.09;100.00;95324.61;108980;1257;71219;-62
2023/12/22 09:10:17;;;;;;;5.00;1.40;;;;;;;0.12;100.00;95329.70;109140;1257;58684;-63
2023/12/22 09:13:05;;;;;;;6.10;1.60;;;;;;;0.15;100.00;95328.32;108319;1257;1002358;-63
2023/12/22 09:15:53;;;;;;;6.40;1.50;;;;;;;0.18;100.00;95329.95;109144;1257;71470;-63
2023/12/22 09:18:42;;;;;;;6.80;2.30;;;;;;;0.22;100.00;95323.54;109130;1257;66354;-62
2023/12/22 09:21:30;;;;;;;5.40;1.40;;;;;;;0.28;100.00;95321.70;108953;1257;71119;-62
2023/12/22 09:24:18;;;;;;;7.10;2.20;;;;;;;0.28;100.00;95318.20;109081;1257;58908;-63
2023/12/22 09:27:06;;;;;;;7.40;1.80;;;;;;;0.26;100.00;95314.94;108347;1259;1002165;-64
2023/12/22 09:29:53;;;;;;;4.70;1.40;;;;;;;0.26;100.00;95318.59;109041;1257;72326;-63
2023/12/22 09:32:40;;;;;;;7.80;2.10;;;;;;;0.25;100.00;95313.47;109067;1257;67959;-61
2023/12/22 09:35:28;;;;;;;5.80;1.50;;;;;;;0.24;100.00;95312.49;109083;1257;71396;-63
2023/12/22 09:38:16;;;;;;;5.50;1.70;;;;;;;0.25;100.00;95307.64;109051;1257;57701;-62
2023/12/22 09:41:04;;;;;;;6.10;1.80;;;;;;;0.28;100.00;95302.08;109037;1258;60382;-63
2023/12/22 09:43:55;;;;;;;7.40;1.80;;;;;;;0.33;100.00;95301.52;109000;1259;73194;-65
2023/12/22 09:46:43;;;;;;;5.20;1.40;;;;;;;0.35;100.00;95292.95;109045;1261;67615;-63
2023/12/22 09:49:35;;;;;;;4.60;1.30;;;;;;;0.34;100.00;95287.98;108939;1260;73367;-63
2023/12/22 09:52:23;;;;;;;5.70;1.50;;;;;;;0.33;100.00;95294.77;109065;1257;57368;-60
2023/12/22 09:55:17;;;;;;;8.00;2.20;;;;;;;0.32;100.00;95290.03;108889;1257;61085;-64
2023/12/22 09:58:06;;;;;;;7.20;1.90;;;;;;;0.32;100.00;95296.56;109068;1257;72767;-62
2023/12/22 10:00:55;;;;;;;5.80;1.60;;;;;;;0.31;100.00;95299.64;109098;1257;67697;-60
2023/12/22 10:03:43;;;;;;;5.10;1.60;;;;;;;0.33;100.00;95299.98;109097;1257;71121;-63
2023/12/22 10:06:32;;;;;;;5.70;1.60;;;;;;;0.33;100.00;95305.38;109126;1257;57397;-65
2023/12/22 10:09:21;;;;;;;5.30;1.50;;;;;;;0.33;100.00;95310.59;109072;1257;58177;-63
2023/12/22 10:12:11;;;;;;;5.20;1.50;;;;;;;0.30;100.00;95310.40;109147;1257;71807;-62
2023/12/22 10:15:00;;;;;;;4.50;1.20;;;;;;;0.36;100.00;95316.91;109101;1257;67557;-64
2023/12/22 10:17:48;;;;;;;5.80;1.60;;;;;;;0.38;100.00;95316.73;109048;1257;72505;-62
2023/12/22 10:20:36;;;;;;;5.20;1.60;;;;;;;0.38;100.00;95318.27;109110;1257;57413;-61
2023/12/22 10:23:25;;;;;;;6.00;1.80;;;;;;;0.38;100.00;95324.97;109072;1258;61215;-62
2023/12/22 10:26:12;;;;;;;6.90;1.50;;;;;;;0.38;100.00;95332.06;109188;1257;71849;-61
2023/12/22 10:29:03;;;;;;;5.20;1.60;;;;;;;0.40;100.00;95327.70;109094;1258;67085;-63
2023/12/22 10:31:50;;;;;;;7.90;2.00;;;;;;;0.40;100.00;95323.33;109058;1257;72433;-60
2023/12/22 10:34:38;;;;;;;5.70;1.80;;;;;;;0.41;100.00;95322.15;109105;1257;57683;-60
2023/12/22 10:37:26;;;;;;;5.60;1.50;;;;;;;0.44;100.00;95321.41;109218;1257;59009;-62
2023/12/22 10:40:15;;;;;;;5.50;1.40;;;;;;;0.47;100.00;95321.52;109099;1257;72644;-65
2023/12/22 10:43:04;;;;;;;6.60;1.60;;;;;;;0.50;100.00;95320.91;109207;1257;66448;-62
2023/12/22 10:45:52;;;;;;;6.10;1.80;;;;;;;0.56;100.00;95318.01;109075;1257;72430;-62
2023/12/22 10:48:40;;;;;;;5.20;1.70;;;;;;;0.61;100.00;95314.48;109074;1257;59512;-64
2023/12/22 10:51:32;;;;;;;6.10;1.70;;;;;;;0.63;100.00;95314.44;109132;1257;60040;-61
2023/12/22 10:54:20;;;;;;;4.70;1.30;;;;;;;0.61;100.00;95313.59;109059;1256;74016;-63
2023/12/22 10:57:10;;;;;;;5.60;1.70;;;;;;;0.56;100.00;95318.55;109157;1257;66305;-62
2023/12/22 10:59:59;;;;;;;4.90;1.50;;;;;;;0.58;100.00;95320.45;108983;1257;73662;-62
2023/12/22 11:02:51;;;;;;;6.10;1.70;;;;;;;0.60;100.00;95322.48;109008;1257;59483;-63
2023/12/22 11:05:44;;;;;;;5.60;1.50;;;;;;;0.62;100.00;95322.45;108345;1257;1002221;-62
2023/12/22 11:08:35;;;;;;;6.50;1.90;;;;;;;0.65;100.00;95327.46;109171;1257;72789;-62
2023/12/22 11:11:32;;;;;;;5.90;1.50;;;;;;;0.66;100.00;95332.89;109083;1257;66670;-62
2023/12/22 11:14:21;;;;;;;6.90;2.40;;;;;;;0.67;100.00;95326.66;109098;1257;73515;-63
2023/12/22 11:17:11;;;;;;;6.20;1.80;;;;;;;0.70;100.00;95329.06;109136;1257;57539;-62
2023/12/22 11:20:03;;;;;;;7.40;2.40;;;;;;;0.66;100.00;95331.11;109040;1257;60974;-61
2023/12/22 11:22:52;;;;;;;6.10;1.90;;;;;;;0.64;100.00;95329.43;109100;1257;73723;-62
2023/12/22 11:25:40;;;;;;;6.80;1.90;;;;;;;0.60;100.00;95331.75;109077;1257;67765;-62
2023/12/22 11:28:28;;;;;;;5.60;1.70;;;;;;;0.57;100.00;95330.75;109097;1257;73490;-61
2023/12/22 11:31:17;;;;;;;4.70;1.40;;;;;;;0.55;100.00;95337.70;109160;1257;58593;-63
2023/12/22 11:34:07;;;;;;;5.20;1.30;;;;;;;0.53;100.00;95339.08;109094;1257;59135;-62
2023/12/22 11:37:03;;;;;;;5.70;1.30;;;;;;;0.52;100.00;95336.92;109067;1257;73972;-63
2023/12/22 11:39:52;;;;;;;6.50;1.70;;;;;;;0.51;100.00;95340.92;108997;1257;65721;-63
2023/12/22 11:42:45;;;;;;;7.80;1.90;;;;;;;0.48;100.00;95337.50;109172;1257;71330;-63
2023/12/22 11:45:35;;;;;;;4.90;1.30;;;;;;;0.46;100.00;95346.30;108949;1257;57735;-62
2023/12/22 11:48:23;;;;;;;4.70;1.20;;;;;;;0.42;100.00;95346.83;109046;1257;59077;-63
2023/12/22 11:51:15;;;;;;;4.10;1.00;;;;;;;0.38;100.00;95351.88;109166;1257;73350;-62
2023/12/22 11:54:03;;;;;;;4.70;1.20;;;;;;;0.34;100.00;95354.61;108986;1257;67865;-63
2023/12/22 11:56:51;;;;;;;4.90;1.30;;;;;;;0.31;100.00;95353.94;109091;1260;71444;-62
2023/12/22 11:59:39;;;;;;;4.50;1.20;;;;;;;0.25;100.00;95357.16;108999;1259;57486;-64
2023/12/22 12:02:29;;;;;;;4.30;1.20;;;;;;;0.23;100.00;95366.36;109082;1261;59799;-65
2023/12/22 12:05:17;;;;;;;5.50;1.60;;;;;;;0.22;100.00;95368.88;109032;1257;72492;-63
2023/12/22 12:08:08;;;;;;;6.10;1.50;;;;;;;0.21;100.00;95366.89;108958;1258;68056;-62
2023/12/22 12:10:56;;;;;;;5.60;1.40;;;;;;;0.20;100.00;95366.11;109038;1257;71937;-64
2023/12/22 12:13:46;;;;;;;4.30;1.20;;;;;;;0.20;100.00;95377.81;109067;1260;58340;-64
2023/12/22 12:16:34;;;;;;;5.60;1.80;;;;;;;0.20;100.00;95388.56;109113;1257;58807;-62
2023/12/22 12:19:22;;;;;;;5.10;1.20;;;;;;;0.19;100.00;95391.05;109079;1259;74050;-64
2023/12/22 12:22:14;;;;;;;4.20;1.20;;;;;;;0.16;100.00;95396.23;109036;1257;66439;-63
2023/12/22 12:25:04;;;;;;;4.80;1.30;;;;;;;0.13;100.00;95398.05;108942;1257;71428;-64
2023/12/22 12:28:06;;;;;;;4.20;1.20;;;;;;;0.12;100.00;95407.61;108934;1258;59938;-62
2023/12/22 12:31:04;;;;;;;4.60;1.30;;;;;;;0.13;100.00;95406.63;108960;1259;60069;-63
2023/12/22 12:33:52;;;;;;;5.00;1.50;;;;;;;0.12;100.00;95410.52;109059;1260;72686;-63
2023/12/22 12:36:40;;;;;;;5.80;1.50;;;;;;;0.15;100.00;95418.91;109006;1262;67923;-62
2023/12/22 12:39:33;;;;;;;4.70;1.30;;;;;;;0.14;100.00;95418.31;108968;1257;72599;-64
2023/12/22 12:42:23;;;;;;;5.20;1.20;;;;;;;0.13;100.00;95421.04;109079;1260;58852;-63
2023/12/22 12:45:11;;;;;;;4.60;1.30;;;;;;;0.12;100.00;95427.80;109090;1257;60131;-63
2023/12/22 12:48:00;;;;;;;5.10;1.40;;;;;;;0.11;100.00;95435.45;109077;1257;70588;-65
2023/12/22 12:50:49;;;;;;;5.30;1.60;;;;;;;0.09;100.00;95434.21;109008;1257;68023;-63
2023/12/22 12:53:37;;;;;;;5.10;1.60;;;;;;;0.08;100.00;95442.18;109003;1256;72844;-64
2023/12/22 12:56:24;;;;;;;5.20;1.50;;;;;;;0.06;100.00;95453.17;109048;1259;59844;-64
2023/12/22 12:59:20;;;;;;;4.40;1.20;;;;;;;0.04;100.00;95447.29;109091;1257;61397;-65
2023/12/22 13:02:07;;;;;;;4.50;1.20;;;;;;;0.04;100.00;95440.20;109020;1257;71488;-63